createdAt,value
2023-04-14T00:00:54.125Z,4.60
2023-04-14T00:03:21.026Z,4.90
2023-04-14T00:05:47.662Z,4.95
2023-04-14T00:08:14.122Z,4.43
2023-04-14T00:10:40.716Z,4.82
2023-04-14T00:13:07.297Z,4.78
2023-04-14T00:15:33.833Z,4.55
2023-04-14T00:18:00.439Z,5.68
2023-04-14T00:20:27.024Z,4.55
2023-04-14T00:22:53.470Z,5.25
2023-04-14T00:25:20.001Z,4.22
2023-04-14T00:27:46.505Z,4.75
2023-04-14T00:30:14.028Z,5.05
2023-04-14T00:32:40.526Z,4.70
2023-04-14T00:35:07.362Z,4.68
2023-04-14T00:37:33.852Z,4.50
2023-04-14T00:40:00.304Z,5.13
2023-04-14T00:42:27.321Z,4.47
2023-04-14T00:44:53.816Z,4.20
2023-04-14T00:47:22.990Z,4.60
2023-04-14T00:49:50.117Z,4.20
2023-04-14T00:52:16.784Z,4.75
2023-04-14T00:54:43.418Z,4.90
2023-04-14T00:57:09.892Z,4.40
2023-04-14T00:59:37.202Z,4.22
2023-04-14T01:02:03.844Z,4.50
2023-04-14T01:04:40.775Z,4.82
2023-04-14T01:07:28.500Z,5.25
2023-04-14T01:09:57.235Z,4.40
2023-04-14T01:12:48.273Z,4.22
2023-04-14T01:15:32.646Z,4.43
2023-04-14T01:18:12.336Z,4.22
2023-04-14T01:20:44.934Z,4.88
2023-04-14T01:23:16.094Z,4.20
2023-04-14T01:26:20.082Z,4.22
2023-04-14T01:29:08.223Z,4.55
2023-04-14T01:31:41.274Z,4.82
2023-04-14T01:34:29.412Z,4.07
2023-04-14T01:37:06.422Z,4.38
2023-04-14T01:39:41.217Z,4.53
2023-04-14T01:42:13.871Z,4.10
2023-04-14T01:44:42.040Z,3.85
2023-04-14T01:47:12.921Z,4.03
2023-04-14T01:49:40.499Z,4.35
2023-04-14T01:52:12.903Z,3.92
2023-04-14T01:54:41.455Z,4.15
2023-04-14T01:57:10.524Z,4.43
2023-04-14T01:59:38.721Z,3.83
2023-04-14T02:02:08.012Z,3.63
2023-04-14T02:04:36.967Z,3.88
2023-04-14T02:07:06.268Z,3.65
2023-04-14T02:09:34.091Z,3.55
2023-04-14T02:12:01.335Z,3.28
2023-04-14T02:14:29.464Z,3.38
2023-04-14T02:16:59.092Z,3.88
2023-04-14T02:19:26.963Z,3.35
2023-04-14T02:21:56.750Z,4.00
2023-04-14T02:24:23.807Z,3.40
2023-04-14T02:26:58.676Z,3.35
2023-04-14T02:29:27.433Z,3.35
2023-04-14T02:32:02.690Z,3.65
2023-04-14T02:34:33.859Z,3.42
2023-04-14T02:37:08.167Z,3.50
2023-04-14T02:39:42.754Z,3.53
2023-04-14T02:42:15.832Z,3.00
2023-04-14T02:44:49.024Z,3.63
2023-04-14T02:47:37.203Z,2.95
2023-04-14T02:50:07.381Z,3.67
2023-04-14T02:52:34.638Z,3.38
2023-04-14T02:55:03.493Z,3.58
2023-04-14T02:57:30.838Z,3.15
2023-04-14T02:59:58.892Z,4.10
2023-04-14T03:02:25.689Z,3.40
2023-04-14T03:04:53.448Z,4.00
2023-04-14T03:07:21.803Z,3.00
2023-04-14T03:09:50.490Z,3.13
2023-04-14T03:12:18.644Z,2.97
2023-04-14T03:14:45.404Z,3.60
2023-04-14T03:17:14.734Z,3.15
2023-04-14T03:19:42.455Z,3.28
2023-04-14T03:22:10.634Z,3.25
2023-04-14T03:24:38.919Z,3.00
2023-04-14T03:27:19.044Z,3.65
2023-04-14T03:29:48.589Z,3.55
2023-04-14T03:32:17.837Z,3.38
2023-04-14T03:34:48.328Z,2.95
2023-04-14T03:37:18.302Z,4.22
2023-04-14T03:39:50.658Z,3.53
2023-04-14T03:42:19.994Z,3.70
2023-04-14T03:44:53.091Z,3.60
2023-04-14T03:47:23.467Z,3.17
2023-04-14T03:49:56.238Z,2.50
2023-04-14T03:52:24.855Z,3.33
2023-04-14T03:54:54.934Z,3.42
2023-04-14T03:57:23.338Z,3.50
2023-04-14T03:59:51.092Z,3.47
2023-04-14T04:02:19.204Z,3.92
2023-04-14T04:04:47.029Z,4.90
2023-04-14T04:07:14.688Z,4.65
2023-04-14T04:09:43.228Z,4.43
2023-04-14T04:12:13.194Z,3.92
2023-04-14T04:14:40.552Z,4.35
2023-04-14T04:17:09.392Z,4.43
2023-04-14T04:19:37.850Z,3.95
2023-04-14T04:22:05.591Z,4.25
2023-04-14T04:24:37.663Z,4.32
2023-04-14T04:27:09.895Z,4.18
2023-04-14T04:29:41.306Z,4.43
2023-04-14T04:32:07.961Z,4.50
2023-04-14T04:34:35.257Z,4.97
2023-04-14T04:37:02.326Z,4.57
2023-04-14T04:39:29.702Z,5.15
2023-04-14T04:42:06.814Z,5.18
2023-04-14T04:44:34.215Z,5.30
2023-04-14T04:47:01.253Z,4.90
2023-04-14T04:49:28.237Z,4.18
2023-04-14T04:51:56.555Z,4.30
2023-04-14T04:54:23.060Z,4.95
2023-04-14T04:56:50.060Z,4.50
2023-04-14T04:59:16.498Z,5.20
2023-04-14T05:01:42.986Z,4.78
2023-04-14T05:04:09.570Z,4.80
2023-04-14T05:06:39.694Z,5.18
2023-04-14T05:09:06.904Z,5.50
2023-04-14T05:11:33.932Z,5.43
2023-04-14T05:14:01.386Z,5.93
2023-04-14T05:16:28.783Z,5.72
2023-04-14T05:18:55.532Z,4.93
2023-04-14T05:21:22.599Z,5.45
2023-04-14T05:23:49.220Z,5.78
2023-04-14T05:28:46.208Z,5.45
2023-04-14T05:31:12.902Z,4.85
2023-04-14T05:33:40.191Z,5.40
2023-04-14T05:36:09.666Z,6.35
2023-04-14T05:38:43.219Z,4.95
2023-04-14T05:41:09.776Z,4.43
2023-04-14T05:43:37.284Z,4.68
2023-04-14T05:46:04.161Z,5.00
2023-04-14T05:48:33.113Z,4.93
2023-04-14T05:50:59.795Z,4.85
2023-04-14T05:53:27.475Z,4.85
2023-04-14T05:55:54.337Z,4.22
2023-04-14T05:58:21.600Z,4.60
2023-04-14T06:00:48.091Z,4.97
2023-04-14T06:03:16.390Z,5.60
2023-04-14T06:05:43.216Z,4.55
2023-04-14T06:08:09.653Z,4.50
2023-04-14T06:10:36.347Z,4.97
2023-04-14T06:13:04.067Z,4.55
2023-04-14T06:15:31.121Z,4.20
2023-04-14T06:17:57.684Z,4.43
2023-04-14T06:20:24.364Z,4.90
2023-04-14T06:22:50.898Z,4.85
2023-04-14T06:25:17.417Z,5.45
2023-04-14T06:27:43.961Z,4.82
2023-04-14T06:30:10.845Z,5.28
2023-04-14T06:32:37.555Z,4.60
2023-04-14T06:35:05.105Z,5.00
2023-04-14T06:37:32.320Z,5.22
2023-04-14T06:39:58.913Z,5.57
2023-04-14T06:42:25.722Z,5.60
2023-04-14T06:44:52.372Z,4.97
2023-04-14T06:47:20.165Z,5.03
2023-04-14T06:49:46.677Z,5.20
2023-04-14T06:52:13.270Z,5.13
2023-04-14T06:54:39.849Z,5.10
2023-04-14T06:57:06.318Z,4.32
2023-04-14T06:59:32.836Z,5.32
2023-04-14T07:01:59.770Z,5.35
2023-04-14T07:04:26.656Z,5.95
2023-04-14T07:06:53.239Z,6.00
2023-04-14T07:09:20.813Z,5.90
2023-04-14T07:11:47.387Z,5.85
2023-04-14T07:14:14.072Z,6.00
2023-04-14T07:16:40.779Z,6.63
2023-04-14T07:19:07.732Z,6.82
2023-04-14T07:21:34.680Z,6.60
2023-04-14T07:24:01.576Z,6.25
2023-04-14T07:26:28.395Z,6.40
2023-04-14T07:28:55.661Z,5.93
2023-04-14T07:31:22.454Z,5.45
2023-04-14T07:33:49.350Z,6.18
2023-04-14T07:36:15.839Z,7.15
2023-04-14T07:38:43.710Z,6.95
2023-04-14T07:41:10.185Z,6.75
2023-04-14T07:43:36.902Z,6.35
2023-04-14T07:46:05.262Z,5.32
2023-04-14T07:48:33.832Z,5.00
2023-04-14T07:51:00.429Z,4.95
2023-04-14T07:53:27.388Z,5.25
2023-04-14T07:55:53.877Z,5.32
2023-04-14T07:58:21.614Z,5.60
2023-04-14T08:00:50.035Z,4.65
2023-04-14T08:03:17.232Z,5.05
2023-04-14T08:05:44.136Z,4.63
2023-04-14T08:08:10.791Z,4.97
2023-04-14T08:10:41.886Z,4.57
2023-04-14T08:13:08.798Z,3.33
2023-04-14T08:15:35.707Z,5.40
2023-04-14T08:18:02.365Z,4.90
2023-04-14T08:20:29.210Z,4.88
2023-04-14T08:22:57.289Z,4.90
2023-04-14T08:25:24.120Z,4.22
2023-04-14T08:27:51.216Z,4.82
2023-04-14T08:30:17.734Z,4.72
2023-04-14T08:32:44.238Z,5.35
2023-04-14T08:35:41.015Z,4.03
2023-04-14T08:37:57.314Z,4.28
2023-04-14T08:40:29.049Z,5.03
2023-04-14T08:42:57.056Z,5.15
2023-04-14T08:45:23.974Z,4.93
2023-04-14T08:47:54.465Z,4.32
2023-04-14T08:50:25.541Z,4.93
2023-04-14T08:52:56.042Z,4.00
2023-04-14T08:55:24.196Z,4.28
2023-04-14T08:57:51.249Z,4.57
2023-04-14T09:00:19.527Z,4.40
2023-04-14T09:02:47.485Z,4.90
2023-04-14T09:05:15.571Z,4.90
2023-04-14T09:07:42.783Z,5.10
2023-04-14T09:10:11.669Z,5.45
2023-04-14T09:12:42.252Z,5.32
2023-04-14T09:15:09.499Z,5.30
2023-04-14T09:17:36.978Z,5.40
2023-04-14T09:20:37.780Z,6.35
2023-04-14T09:22:51.243Z,5.75
2023-04-14T09:25:19.767Z,5.80
2023-04-14T09:27:46.238Z,5.45
2023-04-14T09:30:13.234Z,5.30
2023-04-14T09:32:40.399Z,5.20
2023-04-14T09:35:07.764Z,5.25
2023-04-14T09:37:44.633Z,5.38
2023-04-14T09:40:11.972Z,4.47
2023-04-14T09:42:40.096Z,5.63
2023-04-14T09:45:08.380Z,5.68
2023-04-14T09:47:35.257Z,5.45
2023-04-14T09:50:03.936Z,5.22
2023-04-14T09:52:56.736Z,5.00
2023-04-14T09:55:23.346Z,5.80
2023-04-14T09:57:51.867Z,4.25
2023-04-14T10:00:23.980Z,5.25
2023-04-14T10:03:01.491Z,5.75
2023-04-14T10:05:32.051Z,5.97
2023-04-14T10:08:05.399Z,5.53
2023-04-14T10:10:32.733Z,5.20
2023-04-14T10:13:00.565Z,5.30
2023-04-14T10:15:27.675Z,5.35
2023-04-14T10:17:54.421Z,4.80
2023-04-14T10:20:21.066Z,5.00
2023-04-14T10:22:47.996Z,5.40
2023-04-14T10:25:15.425Z,5.10
2023-04-14T10:27:43.296Z,5.00
2023-04-14T10:30:10.220Z,5.75
2023-04-14T10:32:40.435Z,5.30
2023-04-14T10:35:10.528Z,4.53
2023-04-14T10:37:37.173Z,4.85
2023-04-14T10:40:06.904Z,5.03
2023-04-14T10:42:56.313Z,4.80
2023-04-14T10:45:22.987Z,4.20
2023-04-14T10:47:50.325Z,4.45
2023-04-14T10:50:18.600Z,5.32
2023-04-14T10:52:58.864Z,4.93
2023-04-14T10:55:27.995Z,5.07
2023-04-14T10:58:05.320Z,4.45
2023-04-14T11:00:32.363Z,4.68
2023-04-14T11:03:02.663Z,4.90
2023-04-14T11:05:32.524Z,5.05
2023-04-14T11:08:02.469Z,4.75
2023-04-14T11:10:32.599Z,5.25
2023-04-14T11:13:08.378Z,4.95
2023-04-14T11:16:02.596Z,4.95
2023-04-14T11:18:45.296Z,5.07
2023-04-14T11:21:15.577Z,5.40
2023-04-14T11:23:43.630Z,5.40
2023-04-14T11:26:12.331Z,6.38
2023-04-14T11:28:42.025Z,6.43
2023-04-14T11:31:12.121Z,5.10
2023-04-14T11:33:40.105Z,5.90
2023-04-14T11:36:09.374Z,6.60
2023-04-14T11:38:40.916Z,5.90
2023-04-14T11:41:08.329Z,5.68
2023-04-14T11:43:35.075Z,6.38
2023-04-14T11:46:05.166Z,5.82
2023-04-14T11:48:31.732Z,5.13
2023-04-14T11:51:03.331Z,5.25
2023-04-14T11:53:30.657Z,5.00
2023-04-14T11:55:57.580Z,4.68
2023-04-14T11:58:26.707Z,5.35
2023-04-14T12:00:56.248Z,5.07
2023-04-14T12:03:28.167Z,4.25
2023-04-14T12:06:03.351Z,4.95
2023-04-14T12:08:31.545Z,4.35
2023-04-14T12:10:58.948Z,5.40
2023-04-14T12:13:27.017Z,4.32
2023-04-14T12:15:54.436Z,4.28
2023-04-14T12:18:22.386Z,4.70
2023-04-14T12:20:54.674Z,4.90
2023-04-14T12:23:21.877Z,4.75
2023-04-14T12:25:52.534Z,5.53
2023-04-14T12:28:24.718Z,4.90
2023-04-14T12:30:52.990Z,4.93
2023-04-14T12:33:23.344Z,4.88
2023-04-14T12:35:53.734Z,5.03
2023-04-14T12:38:26.352Z,5.80
2023-04-14T12:40:52.921Z,5.32
2023-04-14T12:43:31.412Z,5.53
2023-04-14T12:45:58.782Z,5.88
2023-04-14T12:48:46.720Z,6.43
2023-04-14T12:51:18.667Z,5.72
2023-04-14T12:53:47.503Z,5.18
2023-04-14T12:56:27.390Z,5.35
2023-04-14T12:58:54.309Z,5.28
2023-04-14T13:01:21.794Z,5.32
2023-04-14T13:03:51.825Z,5.78
2023-04-14T13:06:22.964Z,5.40
2023-04-14T13:08:51.201Z,8.00
2023-04-14T13:11:19.553Z,7.32
2023-04-14T13:13:46.370Z,7.22
2023-04-14T13:16:16.932Z,6.38
2023-04-14T13:18:47.781Z,5.90
2023-04-14T13:21:14.860Z,6.47
2023-04-14T13:23:41.716Z,5.88
2023-04-14T13:26:08.602Z,5.38
2023-04-14T13:28:35.202Z,5.90
2023-04-14T13:31:01.696Z,5.88
2023-04-14T13:33:28.426Z,5.32
2023-04-14T13:35:56.404Z,6.15
2023-04-14T13:38:22.901Z,5.75
2023-04-14T13:40:49.413Z,5.38
2023-04-14T13:43:18.146Z,5.45
2023-04-14T13:45:44.962Z,5.13
2023-04-14T13:48:11.512Z,5.90
2023-04-14T13:50:37.986Z,6.18
2023-04-14T13:53:04.509Z,5.65
2023-04-14T13:55:31.328Z,5.60
2023-04-14T13:57:57.878Z,5.88
2023-04-14T14:00:24.526Z,5.45
2023-04-14T14:02:52.213Z,5.68
2023-04-14T14:05:18.817Z,6.18
2023-04-14T14:07:45.584Z,5.15
2023-04-14T14:10:12.358Z,5.35
2023-04-14T14:12:38.897Z,6.22
2023-04-14T14:15:06.126Z,6.53
2023-04-14T14:17:32.793Z,5.35
2023-04-14T14:19:59.662Z,5.15
2023-04-14T14:22:26.643Z,5.55
2023-04-14T14:24:58.594Z,5.85
2023-04-14T14:27:31.672Z,6.93
2023-04-14T14:29:58.200Z,5.22
2023-04-14T14:32:24.699Z,5.63
2023-04-14T14:34:51.188Z,4.70
2023-04-14T14:37:18.771Z,5.50
2023-04-14T14:39:45.380Z,5.18
2023-04-14T14:42:11.979Z,4.88
2023-04-14T14:44:38.541Z,5.22
2023-04-14T14:47:06.719Z,5.38
2023-04-14T14:49:33.390Z,4.88
2023-04-14T14:52:02.458Z,5.53
2023-04-14T14:54:28.925Z,5.72
2023-04-14T14:56:56.508Z,5.32
2023-04-14T14:59:23.036Z,5.35
2023-04-14T15:01:49.659Z,5.43
2023-04-14T15:04:16.312Z,5.13
2023-04-14T15:06:43.061Z,6.00
2023-04-14T15:09:09.568Z,5.43
2023-04-14T15:11:38.272Z,5.53
2023-04-14T15:14:04.799Z,5.70
2023-04-14T15:16:31.349Z,6.07
2023-04-14T15:18:58.035Z,4.97
2023-04-14T15:21:24.584Z,5.32
2023-04-14T15:23:51.058Z,5.20
2023-04-14T15:26:17.628Z,5.18
2023-04-14T15:28:44.100Z,6.15
2023-04-14T15:31:10.766Z,5.28
2023-04-14T15:33:37.244Z,6.05
2023-04-14T15:36:03.891Z,5.22
2023-04-14T15:38:30.410Z,5.55
2023-04-14T15:40:56.894Z,5.93
2023-04-14T15:43:23.516Z,5.93
2023-04-14T15:45:50.223Z,6.22
2023-04-14T15:48:16.723Z,7.65
2023-04-14T15:50:44.354Z,5.85
2023-04-14T15:53:11.630Z,5.72
2023-04-14T15:55:38.362Z,5.55
2023-04-14T15:58:05.446Z,5.68
2023-04-14T16:00:32.667Z,5.07
2023-04-14T16:03:00.975Z,5.72
2023-04-14T16:05:27.692Z,6.03
2023-04-14T16:07:54.216Z,6.00
2023-04-14T16:10:20.632Z,5.60
2023-04-14T16:12:48.574Z,5.20
2023-04-14T16:15:15.582Z,5.68
2023-04-14T16:17:42.404Z,5.97
2023-04-14T16:20:11.405Z,5.97
2023-04-14T16:22:38.356Z,5.80
2023-04-14T16:25:05.832Z,6.25
2023-04-14T16:27:33.028Z,5.68
2023-04-14T16:29:59.899Z,6.50
2023-04-14T16:32:27.651Z,5.97
2023-04-14T16:34:54.217Z,6.00
2023-04-14T16:37:21.105Z,6.30
2023-04-14T16:39:47.655Z,5.97
2023-04-14T16:42:18.588Z,7.03
2023-04-14T16:44:45.343Z,5.90
2023-04-14T16:47:12.051Z,6.57
2023-04-14T16:49:38.534Z,6.68
2023-04-14T16:52:05.075Z,6.75
2023-04-14T16:54:31.809Z,6.22
2023-04-14T16:56:58.306Z,6.35
2023-04-14T16:59:24.812Z,6.63
2023-04-14T17:01:51.485Z,5.85
2023-04-14T17:04:18.341Z,6.78
2023-04-14T17:06:45.996Z,6.35
2023-04-14T17:09:12.529Z,6.13
2023-04-14T17:11:42.062Z,6.68
2023-04-14T17:14:08.676Z,7.00
2023-04-14T17:16:35.251Z,7.00
2023-04-14T17:19:01.831Z,6.97
2023-04-14T17:21:28.673Z,6.80
2023-04-14T17:23:55.393Z,7.50
2023-04-14T17:26:23.623Z,6.45
2023-04-14T17:28:50.302Z,6.97
2023-04-14T17:31:17.107Z,6.63
2023-04-14T17:33:45.180Z,6.55
2023-04-14T17:36:14.672Z,6.53
2023-04-14T17:38:42.802Z,7.30
2023-04-14T17:41:11.038Z,6.80
2023-04-14T17:43:41.169Z,8.27
2023-04-14T17:46:11.784Z,7.68
2023-04-14T17:48:38.403Z,8.20
2023-04-14T17:51:05.176Z,7.38
2023-04-14T17:53:31.980Z,7.05
2023-04-14T17:55:58.483Z,6.72
2023-04-14T17:58:26.297Z,6.90
2023-04-14T18:00:53.752Z,6.97
2023-04-14T18:03:20.360Z,6.30
2023-04-14T18:05:47.065Z,7.18
2023-04-14T18:08:14.227Z,6.70
2023-04-14T18:10:41.003Z,7.25
2023-04-14T18:13:07.421Z,7.28
2023-04-14T18:15:33.870Z,7.53
2023-04-14T18:18:00.434Z,7.68
2023-04-14T18:20:27.066Z,8.00
2023-04-14T18:22:54.821Z,7.57
2023-04-14T18:25:21.633Z,7.38
2023-04-14T18:30:17.869Z,9.05
2023-04-14T18:32:44.686Z,9.20
2023-04-14T18:35:11.811Z,9.57
2023-04-14T18:37:39.814Z,9.00
2023-04-14T18:40:07.387Z,9.93
2023-04-14T18:42:35.921Z,9.50
2023-04-14T18:45:03.491Z,10.57
2023-04-14T18:47:30.311Z,10.48
2023-04-14T18:49:56.860Z,11.85
2023-04-14T18:52:23.315Z,11.25
2023-04-14T18:54:49.893Z,12.70
2023-04-14T18:57:16.456Z,11.30
2023-04-14T18:59:42.934Z,12.35
2023-04-14T19:02:13.109Z,13.30
2023-04-14T19:04:40.804Z,12.65
2023-04-14T19:07:07.285Z,12.35
2023-04-14T19:09:36.025Z,12.07
2023-04-14T19:12:02.612Z,13.25
2023-04-14T19:14:29.492Z,12.88
2023-04-14T19:16:55.911Z,12.85
2023-04-14T19:19:22.364Z,13.23
2023-04-14T19:21:48.813Z,13.02
2023-04-14T19:24:15.551Z,11.68
2023-04-14T19:26:42.058Z,13.25
2023-04-14T19:29:08.693Z,13.00
2023-04-14T19:31:35.612Z,12.98
2023-04-14T19:34:02.210Z,13.07
2023-04-14T19:36:29.308Z,13.82
2023-04-14T19:38:55.997Z,13.90
2023-04-14T19:41:22.464Z,13.95
2023-04-14T19:43:49.044Z,14.60
2023-04-14T19:46:16.630Z,12.60
2023-04-14T19:48:44.324Z,14.70
2023-04-14T19:51:11.373Z,14.15
2023-04-14T19:53:37.853Z,17.42
2023-04-14T19:56:05.658Z,15.57
2023-04-14T19:58:32.891Z,14.40
2023-04-14T20:01:00.916Z,15.98
2023-04-14T20:03:28.278Z,15.23
2023-04-14T20:05:56.717Z,16.10
2023-04-14T20:08:24.440Z,15.25
2023-04-14T20:10:53.150Z,17.85
2023-04-14T20:13:21.290Z,16.95
2023-04-14T20:15:49.227Z,15.75
2023-04-14T20:18:18.867Z,15.70
2023-04-14T20:20:46.879Z,16.35
2023-04-14T20:23:13.460Z,14.27
2023-04-14T20:25:40.213Z,18.30
2023-04-14T20:28:07.628Z,17.73
2023-04-14T20:30:34.214Z,16.17
2023-04-14T20:33:06.406Z,16.27
2023-04-14T20:35:37.297Z,16.90
2023-04-14T20:38:04.629Z,12.35
2023-04-14T20:40:31.178Z,16.67
2023-04-14T20:42:57.784Z,15.35
2023-04-14T20:45:25.279Z,15.85
2023-04-14T20:47:51.878Z,15.48
2023-04-14T20:50:18.870Z,15.80
2023-04-14T20:52:45.497Z,15.80
2023-04-14T20:55:13.455Z,15.23
2023-04-14T20:57:43.184Z,16.00
2023-04-14T21:00:15.544Z,16.48
2023-04-14T21:02:43.506Z,14.38
2023-04-14T21:05:11.378Z,14.40
2023-04-14T21:07:39.735Z,13.88
2023-04-14T21:10:08.674Z,13.60
2023-04-14T21:12:36.311Z,14.43
2023-04-14T21:15:48.212Z,13.38
2023-04-14T21:18:09.724Z,14.40
2023-04-14T21:20:36.813Z,15.38
2023-04-14T21:23:03.276Z,15.70
2023-04-14T21:25:30.201Z,15.60
2023-04-14T21:27:56.707Z,16.73
2023-04-14T21:30:23.447Z,17.02
2023-04-14T21:32:50.049Z,16.70
2023-04-14T21:35:17.041Z,17.65
2023-04-14T21:37:43.487Z,18.33
2023-04-14T21:40:11.116Z,17.05
2023-04-14T21:42:37.627Z,18.48
2023-04-14T21:45:06.296Z,18.20
2023-04-14T21:47:32.999Z,18.40
2023-04-14T21:49:59.541Z,19.67
2023-04-14T21:52:26.187Z,20.48
2023-04-14T21:54:52.695Z,20.00
2023-04-14T21:57:45.556Z,20.90
2023-04-14T22:00:13.009Z,21.00
2023-04-14T22:02:40.037Z,22.17
2023-04-14T22:05:07.224Z,22.35
2023-04-14T22:07:33.627Z,22.10
2023-04-14T22:10:00.759Z,22.25
2023-04-14T22:12:27.639Z,23.42
2023-04-14T22:14:54.062Z,23.77
2023-04-14T22:17:20.641Z,24.50
2023-04-14T22:19:47.074Z,24.33
2023-04-14T22:22:13.547Z,23.77
2023-04-14T22:24:39.950Z,23.80
2023-04-14T22:27:06.515Z,26.75
2023-04-14T22:29:32.947Z,26.25
2023-04-14T22:31:59.372Z,26.75
2023-04-14T22:34:25.860Z,26.00
2023-04-14T22:36:52.436Z,26.67
2023-04-14T22:39:19.245Z,26.27
2023-04-14T22:41:46.825Z,28.50
2023-04-14T22:44:13.458Z,27.65
2023-04-14T22:46:40.072Z,28.40
2023-04-14T22:49:06.552Z,29.48
2023-04-14T22:51:33.040Z,27.83
2023-04-14T22:53:59.612Z,30.08
2023-04-14T22:56:28.274Z,29.98
2023-04-14T22:58:57.712Z,29.48
2023-04-14T23:01:25.194Z,29.88
2023-04-14T23:03:53.186Z,32.25
2023-04-14T23:06:20.216Z,30.98
2023-04-14T23:08:51.013Z,29.75
2023-04-14T23:11:20.770Z,30.98
2023-04-14T23:13:47.839Z,31.30
2023-04-14T23:16:16.674Z,32.35
2023-04-14T23:18:43.517Z,30.73
2023-04-14T23:21:10.060Z,31.38
2023-04-14T23:23:36.651Z,31.58
2023-04-14T23:26:03.219Z,32.13
2023-04-14T23:28:29.694Z,32.63
2023-04-14T23:30:56.572Z,32.38
2023-04-14T23:33:23.018Z,34.25
2023-04-14T23:35:49.518Z,32.97
2023-04-14T23:38:17.851Z,33.63
2023-04-14T23:40:46.083Z,33.40
2023-04-14T23:43:12.536Z,34.70
2023-04-14T23:45:39.060Z,34.55
2023-04-14T23:48:06.813Z,33.60
2023-04-14T23:50:58.673Z,35.28
2023-04-14T23:53:20.112Z,37.38
2023-04-14T23:55:47.594Z,37.17
2023-04-14T23:58:26.014Z,36.60
